Terminal Aerodrome Forecast
Issued by NWS

Current Version | Previous Version | Text Only | Print | Product List | Glossary Off
Versions: 1 2 3 4 5 6 7 8 9 10 11 12 13 14 15 16 17

000
FTUS41 KPBZ 200800 AAA
TAFMGW
TAF AMD
KMGW 200855Z 2009/2106 25010G20KT P6SM BKN040
     FM201000 24010G20KT 6SM -SHSN OVC025
     FM201600 25008KT P6SM BKN035=

USA.gov is the U.S. government's official web portal to all federal, state and local government web resources and services.